EmailTwitter


Surface observations / United Kingdom / EGLL (03772)

Regions: Quebec | Canada | USA | Europe | France | UK | Elsewhere
Station
Display
Info & Location for EGLL (03772) | Help decoding METAR

Weather Conditions observed on 2018/10/15 at 15:50 UTC at LONDON/HEATHROW, UK (EGLL)

Temperature: 13.0 Celsius.

Dewpoint: 13.0 Celsius.

Relative Humidity: 100%

Winds: Northeast at 9 km/h or 5 knots.

Mean Sea level Pressure: 101.30 kilopascals.

Coded METAR:

EGLL 151550Z AUTO 04005KT 010V080 3300 BR BKN004 OVC010 13/13 Q1013 TEMPO 6000=